sensor_id;sensor_type;location;lat;lon;timestamp;P1;durP1;ratioP1;P2;durP2;ratioP2
49041;SDS011;34859;51.608;11.462;2024-02-04T06:45:36;1.38;;;1.20;;
49041;SDS011;34859;51.608;11.462;2024-02-04T06:48:22;1.48;;;1.38;;
49041;SDS011;34859;51.608;11.462;2024-02-04T06:51:08;1.10;;;1.00;;
49041;SDS011;34859;51.608;11.462;2024-02-04T06:53:54;1.67;;;1.58;;
49041;SDS011;34859;51.608;11.462;2024-02-04T06:56:40;2.67;;;2.47;;
49041;SDS011;34859;51.608;11.462;2024-02-04T06:59:26;3.28;;;3.08;;
49041;SDS011;34859;51.608;11.462;2024-02-04T07:02:12;2.75;;;2.47;;
49041;SDS011;34859;51.608;11.462;2024-02-04T07:04:58;1.92;;;1.80;;
49041;SDS011;34859;51.608;11.462;2024-02-04T07:07:44;1.90;;;1.80;;
49041;SDS011;34859;51.608;11.462;2024-02-04T07:10:29;1.63;;;1.38;;
49041;SDS011;34859;51.608;11.462;2024-02-04T07:13:15;1.70;;;1.60;;
49041;SDS011;34859;51.608;11.462;2024-02-04T07:16:02;2.50;;;2.40;;
49041;SDS011;34859;51.608;11.462;2024-02-04T07:18:47;2.38;;;1.65;;
49041;SDS011;34859;51.608;11.462;2024-02-04T07:21:33;2.17;;;2.08;;
49041;SDS011;34859;51.608;11.462;2024-02-04T07:24:19;3.67;;;3.38;;
49041;SDS011;34859;51.608;11.462;2024-02-04T07:27:06;1.48;;;1.38;;
49041;SDS011;34859;51.608;11.462;2024-02-04T07:29:52;1.95;;;0.77;;
49041;SDS011;34859;51.608;11.462;2024-02-04T07:32:40;0.82;;;0.80;;
49041;SDS011;34859;51.608;11.462;2024-02-04T07:35:26;0.50;;;0.50;;
49041;SDS011;34859;51.608;11.462;2024-02-04T07:38:12;0.70;;;0.70;;
49041;SDS011;34859;51.608;11.462;2024-02-04T07:40:58;2.15;;;0.60;;
49041;SDS011;34859;51.608;11.462;2024-02-04T07:43:45;0.68;;;0.63;;
49041;SDS011;34859;51.608;11.462;2024-02-04T07:46:30;0.63;;;0.60;;
49041;SDS011;34859;51.608;11.462;2024-02-04T07:49:16;0.98;;;0.82;;
49041;SDS011;34859;51.608;11.462;2024-02-04T07:52:02;0.60;;;0.60;;
49041;SDS011;34859;51.608;11.462;2024-02-04T07:54:48;0.50;;;0.50;;
49041;SDS011;34859;51.608;11.462;2024-02-04T07:57:34;1.00;;;0.90;;
49041;SDS011;34859;51.608;11.462;2024-02-04T08:00:21;1.00;;;0.90;;
49041;SDS011;34859;51.608;11.462;2024-02-04T08:03:06;1.00;;;0.90;;
49041;SDS011;34859;51.608;11.462;2024-02-04T08:05:52;1.55;;;0.63;;
49041;SDS011;34859;51.608;11.462;2024-02-04T08:08:38;3.08;;;0.82;;
49041;SDS011;34859;51.608;11.462;2024-02-04T08:11:24;0.85;;;0.80;;
49041;SDS011;34859;51.608;11.462;2024-02-04T08:14:10;1.55;;;1.20;;
49041;SDS011;34859;51.608;11.462;2024-02-04T08:16:56;0.60;;;0.60;;
49041;SDS011;34859;51.608;11.462;2024-02-04T08:19:42;0.90;;;0.90;;
49041;SDS011;34859;51.608;11.462;2024-02-04T08:22:28;0.70;;;0.70;;
49041;SDS011;34859;51.608;11.462;2024-02-04T08:25:14;1.50;;;0.70;;
49041;SDS011;34859;51.608;11.462;2024-02-04T08:28:03;3.55;;;0.90;;
49041;SDS011;34859;51.608;11.462;2024-02-04T08:30:49;2.15;;;0.60;;
49041;SDS011;34859;51.608;11.462;2024-02-04T08:33:35;0.80;;;0.80;;
49041;SDS011;34859;51.608;11.462;2024-02-04T08:36:21;4.43;;;0.90;;
49041;SDS011;34859;51.608;11.462;2024-02-04T08:39:07;1.27;;;0.80;;
49041;SDS011;34859;51.608;11.462;2024-02-04T08:41:54;1.23;;;0.73;;
49041;SDS011;34859;51.608;11.462;2024-02-04T08:44:40;0.90;;;0.63;;
49041;SDS011;34859;51.608;11.462;2024-02-04T08:47:26;1.27;;;0.60;;
49041;SDS011;34859;51.608;11.462;2024-02-04T08:50:12;0.60;;;0.60;;
49041;SDS011;34859;51.608;11.462;2024-02-04T08:52:59;0.70;;;0.60;;
49041;SDS011;34859;51.608;11.462;2024-02-04T08:55:52;0.73;;;0.70;;
49041;SDS011;34859;51.608;11.462;2024-02-04T08:58:38;1.00;;;0.90;;
49041;SDS011;34859;51.608;11.462;2024-02-04T09:01:26;1.50;;;1.40;;
49041;SDS011;34859;51.608;11.462;2024-02-04T09:04:13;1.70;;;1.55;;
49041;SDS011;34859;51.608;11.462;2024-02-04T09:06:59;1.13;;;1.02;;
49041;SDS011;34859;51.608;11.462;2024-02-04T09:09:44;1.15;;;0.70;;
49041;SDS011;34859;51.608;11.462;2024-02-04T09:12:30;1.75;;;0.60;;
49041;SDS011;34859;51.608;11.462;2024-02-04T09:15:18;0.50;;;0.40;;
49041;SDS011;34859;51.608;11.462;2024-02-04T09:18:04;1.05;;;0.50;;
49041;SDS011;34859;51.608;11.462;2024-02-04T09:20:50;1.45;;;0.70;;
49041;SDS011;34859;51.608;11.462;2024-02-04T09:23:36;2.10;;;1.48;;
49041;SDS011;34859;51.608;11.462;2024-02-04T09:26:22;1.60;;;1.00;;
49041;SDS011;34859;51.608;11.462;2024-02-04T09:29:08;1.25;;;1.00;;
49041;SDS011;34859;51.608;11.462;2024-02-04T09:31:54;0.80;;;0.80;;
49041;SDS011;34859;51.608;11.462;2024-02-04T09:34:40;2.35;;;2.15;;
49041;SDS011;34859;51.608;11.462;2024-02-04T09:37:26;1.08;;;0.88;;
49041;SDS011;34859;51.608;11.462;2024-02-04T09:40:12;1.05;;;0.95;;
49041;SDS011;34859;51.608;11.462;2024-02-04T09:42:58;1.63;;;0.93;;
49041;SDS011;34859;51.608;11.462;2024-02-04T09:45:45;1.35;;;1.17;;
49041;SDS011;34859;51.608;11.462;2024-02-04T09:48:32;2.05;;;1.40;;
49041;SDS011;34859;51.608;11.462;2024-02-04T09:51:18;1.50;;;1.40;;
49041;SDS011;34859;51.608;11.462;2024-02-04T09:54:04;1.85;;;1.67;;
49041;SDS011;34859;51.608;11.462;2024-02-04T09:56:54;5.30;;;2.03;;
49041;SDS011;34859;51.608;11.462;2024-02-04T09:59:41;3.63;;;2.28;;
49041;SDS011;34859;51.608;11.462;2024-02-04T10:02:28;2.80;;;2.60;;
49041;SDS011;34859;51.608;11.462;2024-02-04T10:05:16;3.33;;;2.30;;
49041;SDS011;34859;51.608;11.462;2024-02-04T10:08:02;2.33;;;2.13;;
49041;SDS011;34859;51.608;11.462;2024-02-04T10:10:48;2.50;;;2.00;;
49041;SDS011;34859;51.608;11.462;2024-02-04T10:13:45;2.70;;;2.50;;
49041;SDS011;34859;51.608;11.462;2024-02-04T10:16:37;3.85;;;2.88;;
49041;SDS011;34859;51.608;11.462;2024-02-04T10:19:25;2.50;;;2.30;;
49041;SDS011;34859;51.608;11.462;2024-02-04T10:22:13;4.95;;;4.32;;
49041;SDS011;34859;51.608;11.462;2024-02-04T10:25:07;2.67;;;2.42;;
49041;SDS011;34859;51.608;11.462;2024-02-04T10:27:54;2.58;;;2.38;;
49041;SDS011;34859;51.608;11.462;2024-02-04T10:30:40;2.55;;;2.20;;
49041;SDS011;34859;51.608;11.462;2024-02-04T10:33:26;2.45;;;2.25;;
49041;SDS011;34859;51.608;11.462;2024-02-04T10:36:15;2.40;;;2.20;;
49041;SDS011;34859;51.608;11.462;2024-02-04T10:39:01;4.18;;;3.60;;
49041;SDS011;34859;51.608;11.462;2024-02-04T10:41:49;6.50;;;5.90;;
49041;SDS011;34859;51.608;11.462;2024-02-04T10:44:36;3.25;;;2.50;;
49041;SDS011;34859;51.608;11.462;2024-02-04T10:47:30;3.67;;;3.38;;
49041;SDS011;34859;51.608;11.462;2024-02-04T10:50:20;5.15;;;4.47;;
49041;SDS011;34859;51.608;11.462;2024-02-04T10:53:08;11.30;;;7.30;;
49041;SDS011;34859;51.608;11.462;2024-02-04T10:56:02;3.80;;;3.60;;
49041;SDS011;34859;51.608;11.462;2024-02-04T10:58:51;5.53;;;5.13;;
49041;SDS011;34859;51.608;11.462;2024-02-04T11:01:39;15.15;;;10.57;;
49041;SDS011;34859;51.608;11.462;2024-02-04T11:04:27;6.40;;;5.90;;
49041;SDS011;34859;51.608;11.462;2024-02-04T11:07:15;7.53;;;6.82;;
49041;SDS011;34859;51.608;11.462;2024-02-04T11:10:02;6.85;;;6.22;;
49041;SDS011;34859;51.608;11.462;2024-02-04T11:12:49;6.15;;;5.57;;
49041;SDS011;34859;51.608;11.462;2024-02-04T11:15:38;12.00;;;9.40;;
49041;SDS011;34859;51.608;11.462;2024-02-04T11:24:30;1.53;;;1.33;;
49041;SDS011;34859;51.608;11.462;2024-02-04T11:27:40;1.48;;;1.33;;
49041;SDS011;34859;51.608;11.462;2024-02-04T11:30:26;0.80;;;0.80;;
49041;SDS011;34859;51.608;11.462;2024-02-04T11:33:21;1.30;;;1.20;;
49041;SDS011;34859;51.608;11.462;2024-02-04T11:36:11;1.33;;;0.70;;
49041;SDS011;34859;51.608;11.462;2024-02-04T11:41:56;8.35;;;4.75;;
49041;SDS011;34859;51.608;11.462;2024-02-04T11:44:43;2.72;;;1.70;;
49041;SDS011;34859;51.608;11.462;2024-02-04T11:47:33;3.20;;;0.82;;
49041;SDS011;34859;51.608;11.462;2024-02-04T11:50:25;1.90;;;1.10;;
49041;SDS011;34859;51.608;11.462;2024-02-04T11:53:18;2.83;;;1.42;;
49041;SDS011;34859;51.608;11.462;2024-02-04T11:56:05;7.35;;;5.18;;
49041;SDS011;34859;51.608;11.462;2024-02-04T11:58:51;0.57;;;0.57;;
49041;SDS011;34859;51.608;11.462;2024-02-04T12:01:37;0.75;;;0.68;;
49041;SDS011;34859;51.608;11.462;2024-02-04T12:04:24;4.00;;;0.70;;
49041;SDS011;34859;51.608;11.462;2024-02-04T12:07:14;1.80;;;0.77;;
49041;SDS011;34859;51.608;11.462;2024-02-04T12:10:00;0.77;;;0.65;;
49041;SDS011;34859;51.608;11.462;2024-02-04T12:12:46;1.48;;;1.00;;
49041;SDS011;34859;51.608;11.462;2024-02-04T12:15:36;1.23;;;0.98;;
49041;SDS011;34859;51.608;11.462;2024-02-04T12:18:24;1.15;;;0.95;;
49041;SDS011;34859;51.608;11.462;2024-02-04T12:21:11;1.67;;;0.95;;
49041;SDS011;34859;51.608;11.462;2024-02-04T12:23:58;2.20;;;0.80;;
49041;SDS011;34859;51.608;11.462;2024-02-04T12:26:44;1.17;;;1.05;;
49041;SDS011;34859;51.608;11.462;2024-02-04T12:29:32;1.85;;;1.75;;
49041;SDS011;34859;51.608;11.462;2024-02-04T12:32:18;2.35;;;1.55;;
49041;SDS011;34859;51.608;11.462;2024-02-04T12:35:07;3.05;;;1.25;;
49041;SDS011;34859;51.608;11.462;2024-02-04T12:37:55;2.47;;;1.05;;
49041;SDS011;34859;51.608;11.462;2024-02-04T12:40:42;4.43;;;1.48;;
49041;SDS011;34859;51.608;11.462;2024-02-04T12:43:28;3.42;;;1.98;;
49041;SDS011;34859;51.608;11.462;2024-02-04T12:46:14;4.03;;;1.58;;
49041;SDS011;34859;51.608;11.462;2024-02-04T12:49:00;5.22;;;2.05;;
49041;SDS011;34859;51.608;11.462;2024-02-04T12:51:46;6.15;;;2.80;;
49041;SDS011;34859;51.608;11.462;2024-02-04T12:54:42;1.75;;;1.00;;
49041;SDS011;34859;51.608;11.462;2024-02-04T12:57:29;4.35;;;1.65;;
49041;SDS011;34859;51.608;11.462;2024-02-04T13:00:18;1.10;;;0.70;;
49041;SDS011;34859;51.608;11.462;2024-02-04T13:03:05;4.22;;;1.60;;
49041;SDS011;34859;51.608;11.462;2024-02-04T13:06:00;2.15;;;1.33;;
49041;SDS011;34859;51.608;11.462;2024-02-04T13:08:47;3.45;;;1.00;;
49041;SDS011;34859;51.608;11.462;2024-02-04T13:11:33;3.10;;;1.67;;
49041;SDS011;34859;51.608;11.462;2024-02-04T13:14:19;5.30;;;2.05;;
